Time;durP1;ratioP1;P1;durP2;ratioP2;P2;SDS_P1;SDS_P2;PMS_P1;PMS_P2;Temp;Humidity;BMP_temperature;BMP_pressure;BME280_temperature;BME280_humidity;BME280_pressure;Samples;Min_cycle;Max_cycle;Signal;HPM_P1;HPM_P2
2020/12/23 00:00:46;;;;;;;97.05;28.92;;;;;;;4.94;96.39;100682.31;4993207;28;20037;-74
2020/12/23 00:03:11;;;;;;;98.28;30.10;;;;;;;4.85;96.39;100668.44;4992661;28;20065;-77
2020/12/23 00:05:36;;;;;;;95.45;28.50;;;;;;;4.92;96.97;100679.69;4975844;28;20042;-77
2020/12/23 00:08:02;;;;;;;106.55;28.52;;;;;;;4.90;96.96;100692.09;4975651;28;20038;-76
2020/12/23 00:10:27;;;;;;;88.88;27.35;;;;;;;4.84;97.24;100705.50;4993397;28;20487;-78
2020/12/23 00:12:53;;;;;;;93.32;27.38;;;;;;;4.91;97.33;100696.47;4959665;28;20042;-77
2020/12/23 00:15:18;;;;;;;83.38;27.08;;;;;;;4.88;97.33;100694.78;4947269;28;20038;-77
2020/12/23 00:17:44;;;;;;;86.13;27.77;;;;;;;4.83;96.86;100659.72;4979716;28;20118;-77
2020/12/23 00:20:09;;;;;;;95.88;26.75;;;;;;;4.91;97.00;100693.81;4996604;28;20431;-77
2020/12/23 00:22:35;;;;;;;81.57;27.38;;;;;;;4.71;96.51;100649.47;4996896;28;20498;-77
2020/12/23 00:25:01;;;;;;;78.95;26.60;;;;;;;4.90;96.96;100694.72;4996644;28;20035;-78
2020/12/23 00:27:26;;;;;;;94.68;27.95;;;;;;;4.89;97.28;100688.59;4979407;28;20468;-75
2020/12/23 00:29:52;;;;;;;86.78;27.00;;;;;;;4.76;97.22;100662.56;4979145;28;20069;-80
2020/12/23 00:32:19;;;;;;;111.63;28.00;;;;;;;4.70;96.96;100662.75;4978959;28;20046;-79
2020/12/23 00:34:45;;;;;;;106.95;27.25;;;;;;;4.77;97.39;100669.59;4979475;28;20057;-77
2020/12/23 00:37:11;;;;;;;90.78;27.95;;;;;;;4.90;97.27;100684.16;4979074;28;20049;-78
2020/12/23 00:39:36;;;;;;;103.45;27.52;;;;;;;4.94;97.31;100685.81;4979499;28;20105;-78
2020/12/23 00:42:02;;;;;;;100.63;29.30;;;;;;;4.89;97.38;100691.22;4979038;28;20484;-77
2020/12/23 00:44:28;;;;;;;94.35;29.23;;;;;;;4.87;97.68;100700.13;4996371;28;20050;-76
2020/12/23 00:46:53;;;;;;;97.07;28.85;;;;;;;4.88;97.90;100686.00;4978781;28;20118;-76
2020/12/23 00:49:19;;;;;;;87.60;28.83;;;;;;;4.95;97.62;100674.31;4978751;28;20038;-76
2020/12/23 00:51:44;;;;;;;88.88;28.85;;;;;;;4.96;97.45;100678.69;4979133;28;20180;-76
2020/12/23 00:54:09;;;;;;;82.63;27.75;;;;;;;4.95;97.59;100674.31;4995938;28;20045;-77
2020/12/23 00:56:34;;;;;;;93.15;29.42;;;;;;;4.94;97.36;100682.31;4996265;28;20026;-76
2020/12/23 00:59:00;;;;;;;89.18;29.40;;;;;;;4.94;97.35;100677.88;4996013;28;20080;-75
2020/12/23 01:01:25;;;;;;;95.72;28.63;;;;;;;4.63;97.73;100621.56;4995788;28;20066;-75
2020/12/23 01:03:51;;;;;;;96.47;28.77;;;;;;;4.87;98.10;100668.41;4996072;28;20096;-75
2020/12/23 01:06:17;;;;;;;85.30;29.88;;;;;;;4.82;97.79;100647.38;4978538;28;20089;-75
2020/12/23 01:08:42;;;;;;;92.30;28.70;;;;;;;4.97;97.95;100680.44;4978514;28;20045;-75
2020/12/23 01:11:09;;;;;;;88.25;29.95;;;;;;;5.01;97.93;100678.53;4978368;28;20082;-76
2020/12/23 01:13:35;;;;;;;89.28;29.70;;;;;;;4.76;98.05;100636.16;4995860;28;20073;-75
2020/12/23 01:16:02;;;;;;;95.38;30.13;;;;;;;5.02;97.88;100680.28;4962205;28;20495;-74
2020/12/23 01:18:27;;;;;;;91.97;31.05;;;;;;;4.77;97.94;100632.59;4995662;28;20089;-74
2020/12/23 01:20:53;;;;;;;94.32;30.65;;;;;;;4.98;97.96;100674.22;4978641;28;20026;-72
2020/12/23 01:23:19;;;;;;;83.68;28.90;;;;;;;4.82;97.66;100628.88;4978439;28;20030;-75
2020/12/23 01:25:44;;;;;;;83.53;29.83;;;;;;;5.01;97.96;100666.19;4994959;28;20428;-74
2020/12/23 01:28:09;;;;;;;89.53;30.05;;;;;;;5.01;97.84;100668.84;4995120;28;20076;-77
2020/12/23 01:30:35;;;;;;;93.82;31.13;;;;;;;4.88;98.04;100651.63;4962106;28;20058;-77
2020/12/23 01:33:00;;;;;;;93.95;29.55;;;;;;;4.81;97.90;100632.44;4978219;28;20065;-76
2020/12/23 01:35:25;;;;;;;91.30;31.40;;;;;;;4.79;97.98;100626.34;4995209;28;20034;-76
2020/12/23 01:37:51;;;;;;;101.75;31.10;;;;;;;4.99;97.86;100668.03;4995849;28;20511;-75
2020/12/23 01:40:16;;;;;;;95.68;30.88;;;;;;;4.97;98.06;100672.50;4995162;28;20027;-78
2020/12/23 01:42:42;;;;;;;100.28;31.02;;;;;;;4.98;98.08;100678.66;4977959;28;20439;-77
2020/12/23 01:45:07;;;;;;;87.85;30.92;;;;;;;5.01;98.00;100667.97;4995129;28;20042;-76
2020/12/23 01:47:34;;;;;;;86.97;30.33;;;;;;;5.04;98.08;100665.25;4995340;28;20073;-80
2020/12/23 01:50:01;;;;;;;100.13;32.17;;;;;;;4.99;98.07;100648.66;4978063;28;20042;-79
2020/12/23 01:52:27;;;;;;;110.45;32.53;;;;;;;4.72;97.90;100608.94;4995201;28;20485;-79
2020/12/23 01:54:54;;;;;;;118.82;32.42;;;;;;;5.01;98.06;100673.25;4978067;28;20373;-78
2020/12/23 01:57:20;;;;;;;112.18;31.98;;;;;;;5.01;98.11;100671.47;4995160;28;20100;-77
2020/12/23 01:59:47;;;;;;;98.82;31.20;;;;;;;4.78;98.12;100626.38;4977616;28;20377;-78
2020/12/23 02:02:28;;;;;;;102.90;32.75;;;;;;;5.03;98.30;100666.16;4994760;28;20051;-78
2020/12/23 02:04:55;;;;;;;106.88;32.35;;;;;;;4.79;97.94;100621.06;4977694;28;20124;-77
2020/12/23 02:07:23;;;;;;;107.32;30.85;;;;;;;5.04;97.93;100674.06;4977329;28;20041;-77
2020/12/23 02:09:51;;;;;;;102.88;32.05;;;;;;;5.07;98.02;100671.31;4994873;28;20034;-77
2020/12/23 02:12:16;;;;;;;97.75;32.95;;;;;;;5.01;97.99;100660.91;4994809;28;20026;-77
2020/12/23 02:14:42;;;;;;;101.90;31.27;;;;;;;5.04;98.03;100667.91;4994875;28;20181;-78
2020/12/23 02:17:08;;;;;;;101.55;32.45;;;;;;;5.00;98.27;100661.81;4994820;28;20034;-77
2020/12/23 02:19:34;;;;;;;104.25;32.90;;;;;;;5.00;98.03;100653.03;4994401;28;20116;-74
2020/12/23 02:22:01;;;;;;;97.95;32.70;;;;;;;5.09;97.77;100645.66;4994616;28;20042;-75
2020/12/23 02:24:26;;;;;;;91.20;30.95;;;;;;;4.86;98.08;100619.09;4994463;28;20080;-73
2020/12/23 02:26:52;;;;;;;86.93;30.23;;;;;;;5.07;97.72;100636.94;4994340;28;20468;-75
2020/12/23 02:29:17;;;;;;;80.05;30.25;;;;;;;5.09;97.43;100645.66;4976797;28;20518;-79
2020/12/23 02:31:43;;;;;;;85.00;30.33;;;;;;;5.08;97.70;100643.06;4994562;28;20499;-77
2020/12/23 02:34:08;;;;;;;82.55;29.45;;;;;;;5.09;97.36;100632.44;4994495;28;20034;-79
2020/12/23 02:36:34;;;;;;;89.95;30.55;;;;;;;5.00;97.20;100630.09;4993631;28;20038;-78
2020/12/23 02:38:59;;;;;;;80.78;31.30;;;;;;;4.99;97.19;100627.50;4994241;28;20044;-77
2020/12/23 02:41:25;;;;;;;88.95;31.08;;;;;;;5.18;97.39;100660.38;4976844;28;20050;-79
2020/12/23 02:43:50;;;;;;;83.88;30.20;;;;;;;5.12;97.33;100653.53;4977122;28;20035;-77
2020/12/23 02:46:15;;;;;;;83.72;30.33;;;;;;;5.15;97.31;100660.50;4993861;28;20037;-78
2020/12/23 02:48:41;;;;;;;78.13;29.60;;;;;;;5.02;97.22;100633.56;4994278;28;20100;-78
2020/12/23 02:51:06;;;;;;;70.88;29.88;;;;;;;4.97;97.19;100619.63;4960870;28;20057;-77
2020/12/23 02:53:31;;;;;;;78.05;29.25;;;;;;;5.15;97.09;100656.06;4976606;28;20042;-78
2020/12/23 02:56:04;;;;;;;73.00;29.63;;;;;;;5.26;97.09;100657.50;4976875;28;20065;-78
2020/12/23 02:58:30;;;;;;;75.03;29.48;;;;;;;5.25;97.01;100647.84;4994018;28;20037;-78
2020/12/23 03:00:55;;;;;;;67.85;28.25;;;;;;;4.99;96.98;100591.34;4994206;28;20468;-78
2020/12/23 03:03:20;;;;;;;69.18;27.92;;;;;;;5.34;96.81;100639.63;4993289;28;20058;-78
2020/12/23 03:05:46;;;;;;;67.32;27.17;;;;;;;5.22;96.30;100619.72;4976708;28;20072;-78
2020/12/23 03:08:11;;;;;;;69.55;28.45;;;;;;;5.15;96.65;100613.75;4993736;28;20035;-79
2020/12/23 03:10:36;;;;;;;74.88;30.42;;;;;;;5.06;96.68;100584.97;4960071;28;20038;-78
2020/12/23 03:13:02;;;;;;;76.18;28.60;;;;;;;5.34;96.59;100618.44;4960692;28;20034;-78
2020/12/23 03:15:27;;;;;;;72.78;28.65;;;;;;;5.31;96.76;100626.50;4993538;28;20022;-77
2020/12/23 03:17:53;;;;;;;74.95;27.75;;;;;;;5.23;96.87;100617.94;4993981;28;20034;-77
2020/12/23 03:20:18;;;;;;;68.45;28.55;;;;;;;5.26;97.00;100629.28;4993415;28;20424;-74
2020/12/23 03:22:43;;;;;;;71.57;27.67;;;;;;;5.25;97.19;100634.63;4976367;28;20023;-75
2020/12/23 03:25:09;;;;;;;69.05;28.48;;;;;;;5.24;97.10;100628.47;4976496;28;20146;-75
2020/12/23 03:27:34;;;;;;;73.30;28.83;;;;;;;5.25;96.93;100624.03;4975993;28;20068;-75
2020/12/23 03:29:59;;;;;;;72.75;28.58;;;;;;;5.33;97.02;100633.47;4976229;28;20121;-76
2020/12/23 03:32:25;;;;;;;72.72;27.92;;;;;;;5.32;96.82;100637.03;4976276;28;20034;-74
2020/12/23 03:34:50;;;;;;;67.10;27.58;;;;;;;5.34;96.88;100644.91;4993458;28;20093;-75
2020/12/23 03:37:15;;;;;;;70.78;28.55;;;;;;;5.39;96.59;100654.41;4966408;28;20089;-77
2020/12/23 03:39:41;;;;;;;65.32;26.48;;;;;;;5.31;96.77;100637.94;5009233;28;20471;-78
2020/12/23 03:42:06;;;;;;;65.85;28.55;;;;;;;5.40;96.73;100648.22;4977543;28;20133;-78
2020/12/23 03:44:31;;;;;;;65.70;27.45;;;;;;;5.38;96.71;100649.16;4976260;28;20396;-80
2020/12/23 03:46:57;;;;;;;73.13;29.55;;;;;;;5.41;96.73;100631.44;4993683;28;20464;-80
2020/12/23 03:49:22;;;;;;;74.53;30.95;;;;;;;5.34;96.82;100631.69;4978358;28;20034;-81
2020/12/23 03:51:47;;;;;;;71.47;28.88;;;;;;;5.42;96.60;100627.88;4997591;28;20057;-82
2020/12/23 03:54:13;;;;;;;74.07;29.77;;;;;;;5.45;96.55;100635.69;4979884;28;20088;-80
2020/12/23 03:56:38;;;;;;;66.95;28.85;;;;;;;5.40;96.70;100626.16;4979850;28;20121;-79
2020/12/23 03:59:03;;;;;;;62.17;28.10;;;;;;;5.30;96.63;100600.94;4997344;28;20042;-80
2020/12/23 04:01:29;;;;;;;66.80;28.20;;;;;;;5.20;96.42;100570.41;4979477;28;20450;-78
2020/12/23 04:03:54;;;;;;;66.63;28.40;;;;;;;5.57;96.50;100617.66;4979736;28;20054;-77
2020/12/23 04:06:19;;;;;;;73.93;29.33;;;;;;;5.47;96.75;100610.03;4979516;28;20031;-79
2020/12/23 04:08:45;;;;;;;67.40;27.85;;;;;;;5.60;96.92;100621.09;4979845;28;20038;-77
2020/12/23 04:11:11;;;;;;;72.80;29.75;;;;;;;5.59;96.72;100621.97;4997251;28;20068;-74
2020/12/23 04:13:36;;;;;;;68.38;28.38;;;;;;;5.65;96.99;100619.16;4979516;28;20036;-74
2020/12/23 04:16:01;;;;;;;73.10;31.70;;;;;;;5.54;96.98;100581.59;4979698;28;20086;-75
2020/12/23 04:18:27;;;;;;;66.00;29.45;;;;;;;5.72;96.62;100599.50;4979061;28;20065;-75
2020/12/23 04:20:52;;;;;;;65.00;26.63;;;;;;;5.87;96.60;100613.09;4963219;28;20030;-74
2020/12/23 04:23:17;;;;;;;63.92;28.10;;;;;;;5.89;96.30;100612.16;4996541;28;20113;-78
2020/12/23 04:25:43;;;;;;;65.07;27.77;;;;;;;5.64;96.25;100564.50;4997129;28;20034;-79
2020/12/23 04:28:09;;;;;;;61.38;27.20;;;;;;;5.84;96.21;100587.59;4996917;28;20461;-78
2020/12/23 04:30:34;;;;;;;64.53;27.20;;;;;;;5.81;96.14;100587.72;4979066;28;20045;-77
2020/12/23 04:33:00;;;;;;;60.92;27.13;;;;;;;5.86;96.53;100614.03;4996726;28;20034;-76
2020/12/23 04:35:25;;;;;;;55.45;26.45;;;;;;;5.82;96.54;100599.19;4979226;28;20045;-77
2020/12/23 04:37:50;;;;;;;58.70;27.17;;;;;;;5.59;96.81;100561.13;4996622;28;20046;-77
2020/12/23 04:40:16;;;;;;;59.63;26.52;;;;;;;5.88;96.40;100593.66;4996697;28;20034;-77
2020/12/23 04:42:42;;;;;;;56.42;26.38;;;;;;;5.60;96.67;100541.72;4962974;28;20034;-78
2020/12/23 04:45:07;;;;;;;57.53;26.75;;;;;;;5.86;96.82;100595.50;4979251;28;20047;-77
2020/12/23 04:47:36;;;;;;;61.55;27.85;;;;;;;5.90;96.96;100608.63;4996199;28;20085;-76
2020/12/23 04:50:02;;;;;;;57.88;27.23;;;;;;;5.94;97.06;100602.28;4996296;28;20467;-77
2020/12/23 04:52:35;;;;;;;60.47;28.25;;;;;;;5.64;97.10;100542.47;4995958;28;20031;-77
2020/12/23 04:55:04;;;;;;;64.15;28.15;;;;;;;6.05;96.55;100583.34;4979234;28;20431;-77
2020/12/23 04:57:30;;;;;;;58.40;26.80;;;;;;;6.10;96.05;100585.84;4995987;28;20541;-77
2020/12/23 04:59:56;;;;;;;61.15;27.50;;;;;;;5.95;96.19;100579.31;4995403;28;20038;-78
2020/12/23 05:02:21;;;;;;;59.25;28.70;;;;;;;6.00;96.63;100594.13;4962465;28;20081;-78
2020/12/23 05:04:47;;;;;;;56.65;28.02;;;;;;;6.06;96.30;100590.38;4978725;28;20604;-77
2020/12/23 05:07:12;;;;;;;64.20;28.17;;;;;;;6.00;96.23;100603.84;4995962;28;20113;-77
2020/12/23 05:09:38;;;;;;;55.22;26.55;;;;;;;5.84;96.07;100587.59;4978219;28;20038;-78
2020/12/23 05:12:03;;;;;;;62.58;26.75;;;;;;;5.95;96.18;100611.09;4978450;28;20030;-77
2020/12/23 05:14:29;;;;;;;61.80;27.65;;;;;;;5.93;96.50;100603.19;4995605;28;20082;-78
2020/12/23 05:16:55;;;;;;;56.53;27.95;;;;;;;5.92;96.34;100592.66;4996018;28;20388;-78
2020/12/23 05:19:22;;;;;;;59.35;28.17;;;;;;;5.93;96.39;100605.84;4996142;28;20431;-77
2020/12/23 05:21:47;;;;;;;62.17;27.80;;;;;;;5.94;96.23;100599.63;4995717;28;20038;-77
2020/12/23 05:24:13;;;;;;;60.08;27.58;;;;;;;5.95;96.29;100597.84;4979060;28;20501;-77
2020/12/23 05:26:41;;;;;;;58.92;27.33;;;;;;;5.94;96.34;100585.53;4995368;28;20630;-77
2020/12/23 05:29:09;;;;;;;62.85;27.92;;;;;;;5.96;96.41;100591.63;4978292;28;20026;-77
2020/12/23 05:31:35;;;;;;;63.55;29.02;;;;;;;5.89;96.54;100596.28;4995199;28;20097;-77
2020/12/23 05:34:03;;;;;;;61.75;27.95;;;;;;;6.02;96.64;100613.47;4995646;28;20037;-77
2020/12/23 05:36:29;;;;;;;65.45;29.35;;;;;;;5.67;96.37;100542.34;4977977;28;20039;-75
2020/12/23 05:38:55;;;;;;;66.70;30.20;;;;;;;5.90;96.68;100587.44;4978696;28;20034;-77
2020/12/23 05:41:20;;;;;;;63.42;29.15;;;;;;;6.02;96.73;100586.13;4978213;28;20035;-75
2020/12/23 05:43:46;;;;;;;65.63;30.23;;;;;;;5.98;96.68;100582.72;4961844;28;20495;-77
2020/12/23 05:46:12;;;;;;;64.18;29.65;;;;;;;5.89;96.75;100587.47;4995341;28;20443;-77
2020/12/23 05:48:40;;;;;;;62.00;28.85;;;;;;;6.02;96.79;100588.78;4961095;28;20476;-77
2020/12/23 05:51:07;;;;;;;61.85;29.88;;;;;;;5.99;97.06;100596.84;4995389;28;20042;-76
2020/12/23 05:53:34;;;;;;;65.65;29.88;;;;;;;6.02;96.81;100596.72;4977664;28;20379;-75
2020/12/23 05:56:01;;;;;;;66.00;30.42;;;;;;;5.97;96.62;100569.53;4995245;28;20042;-77
2020/12/23 05:58:29;;;;;;;58.63;29.58;;;;;;;6.14;96.70;100596.25;4977709;28;20120;-77
2020/12/23 06:00:58;;;;;;;62.00;29.77;;;;;;;6.05;96.27;100571.91;4995015;28;20038;-76
2020/12/23 06:03:42;;;;;;;67.38;29.73;;;;;;;6.19;96.12;100582.88;4995305;28;20033;-76
2020/12/23 06:06:08;;;;;;;64.70;31.10;;;;;;;6.08;96.33;100575.31;4994766;28;20034;-76
2020/12/23 06:08:36;;;;;;;70.03;31.73;;;;;;;6.06;96.91;100586.88;4977301;28;20026;-78
2020/12/23 06:11:25;;;;;;;67.70;30.25;;;;;;;6.10;96.50;100589.38;4977475;28;20042;-78
2020/12/23 06:14:03;;;;;;;68.57;30.30;;;;;;;6.12;96.66;100594.59;4994797;28;20030;-77
2020/12/23 06:16:36;;;;;;;69.55;29.95;;;;;;;6.12;96.52;100597.25;4994572;28;20034;-78
2020/12/23 06:19:22;;;;;;;67.90;31.17;;;;;;;6.07;96.55;100589.47;4995283;28;20090;-77
2020/12/23 06:21:49;;;;;;;68.50;30.13;;;;;;;6.03;96.52;100579.91;4994462;28;20036;-78
2020/12/23 06:24:15;;;;;;;69.30;32.25;;;;;;;5.87;96.62;100561.00;4994441;28;20058;-76
2020/12/23 06:26:45;;;;;;;73.82;32.05;;;;;;;6.07;96.90;100596.53;4976993;28;20034;-76
2020/12/23 06:29:19;;;;;;;68.03;30.20;;;;;;;6.07;96.71;100573.56;4994574;28;20077;-78
2020/12/23 06:31:52;;;;;;;64.75;30.55;;;;;;;6.18;96.31;100589.09;4994204;28;20403;-78
2020/12/23 06:34:21;;;;;;;67.57;31.48;;;;;;;6.11;96.56;100582.28;4994460;28;20069;-78
2020/12/23 06:36:48;;;;;;;67.13;29.90;;;;;;;6.24;96.23;100573.81;4994173;28;20113;-78
2020/12/23 06:39:27;;;;;;;63.45;28.63;;;;;;;6.20;96.05;100584.59;4994324;28;20500;-78
2020/12/23 06:41:53;;;;;;;68.18;31.55;;;;;;;6.06;96.54;100593.03;4994147;28;20068;-77
2020/12/23 06:44:20;;;;;;;66.85;30.80;;;;;;;5.92;96.62;100567.06;4977054;28;20049;-78
2020/12/23 06:47:30;;;;;;;62.55;31.80;;;;;;;6.08;96.59;100591.22;4993872;28;20038;-78
2020/12/23 06:49:58;;;;;;;68.25;30.67;;;;;;;5.98;96.86;100593.31;4970884;28;20096;-78
2020/12/23 06:52:27;;;;;;;66.95;30.70;;;;;;;5.96;96.87;100586.34;4976832;28;20488;-78
2020/12/23 06:54:54;;;;;;;71.60;31.02;;;;;;;5.93;96.66;100597.03;4993843;28;20049;-78
2020/12/23 06:57:38;;;;;;;69.97;32.10;;;;;;;5.86;97.05;100596.34;4993764;28;20074;-78
2020/12/23 07:00:26;;;;;;;;;;;;;;;5.90;97.28;100602.44;4977163;28;20040;-77
2020/12/23 07:03:08;;;;;;;64.05;27.75;;;;;;;6.05;97.06;100598.38;4994130;28;19976;-78
2020/12/23 07:05:39;;;;;;;59.80;29.23;;;;;;;5.91;96.93;100572.41;4994132;28;20056;-76
2020/12/23 07:08:12;;;;;;;67.93;30.95;;;;;;;6.10;97.00;100591.16;4994007;28;20037;-77
2020/12/23 07:10:41;;;;;;;63.03;28.80;;;;;;;6.18;96.73;100581.16;4993915;28;20034;-76
2020/12/23 07:13:13;;;;;;;65.10;29.70;;;;;;;6.28;96.24;100594.00;4997666;28;20030;-75
2020/12/23 07:16:00;;;;;;;64.43;30.40;;;;;;;6.25;96.23;100564.94;4998850;28;20369;-76
2020/12/23 07:18:30;;;;;;;58.55;29.20;;;;;;;6.29;95.78;100573.66;4993778;28;20400;-76
2020/12/23 07:20:59;;;;;;;66.68;30.05;;;;;;;6.32;95.83;100585.00;4993443;28;20026;-74
2020/12/23 07:23:26;;;;;;;63.83;29.02;;;;;;;6.26;95.41;100542.81;4975834;28;20506;-74
2020/12/23 07:25:54;;;;;;;60.92;28.60;;;;;;;6.50;95.41;100579.94;4976330;28;20062;-73
2020/12/23 07:28:25;;;;;;;65.55;29.52;;;;;;;6.32;95.16;100550.56;4993657;28;20038;-75
2020/12/23 07:30:51;;;;;;;59.10;28.33;;;;;;;6.42;94.56;100550.19;4993264;28;20035;-75
2020/12/23 07:33:17;;;;;;;58.17;28.58;;;;;;;6.63;94.84;100581.19;4993497;28;20163;-74
2020/12/23 07:36:01;;;;;;;59.28;29.38;;;;;;;6.71;94.52;100576.44;4975944;28;20042;-76
2020/12/23 07:38:33;;;;;;;55.15;27.17;;;;;;;6.63;94.59;100562.63;4993726;28;20039;-77
2020/12/23 07:40:59;;;;;;;64.60;30.02;;;;;;;6.71;94.39;100570.28;4976376;28;20045;-77
2020/12/23 07:43:25;;;;;;;60.75;28.85;;;;;;;6.78;94.33;100577.06;4993693;28;20121;-78
2020/12/23 07:45:51;;;;;;;59.33;28.35;;;;;;;6.80;94.12;100573.44;4993475;28;20049;-75
2020/12/23 07:48:19;;;;;;;52.42;27.45;;;;;;;6.85;93.71;100568.81;4960052;28;20046;-74
2020/12/23 07:50:49;;;;;;;55.78;28.67;;;;;;;6.84;93.67;100560.91;4993255;28;20089;-74
2020/12/23 07:53:17;;;;;;;55.65;27.92;;;;;;;6.96;93.13;100572.84;4993436;28;20029;-74
2020/12/23 07:55:59;;;;;;;55.33;27.02;;;;;;;6.96;93.43;100570.19;4993013;28;20045;-74
2020/12/23 07:58:24;;;;;;;59.75;28.70;;;;;;;6.65;93.47;100514.84;4993518;28;20026;-75
2020/12/23 08:00:50;;;;;;;58.13;29.25;;;;;;;6.77;93.80;100523.19;4975788;28;20049;-76
2020/12/23 08:03:30;;;;;;;60.17;29.27;;;;;;;6.87;93.74;100543.09;4993448;28;20380;-77
2020/12/23 08:06:03;;;;;;;57.17;28.58;;;;;;;7.00;93.55;100562.03;4975665;28;20057;-78
2020/12/23 08:08:28;;;;;;;57.08;28.77;;;;;;;7.04;93.13;100553.00;4977729;28;20479;-77
2020/12/23 08:10:54;;;;;;;57.97;30.02;;;;;;;6.98;93.69;100541.81;4995774;28;20034;-77
2020/12/23 08:13:27;;;;;;;55.90;27.55;;;;;;;7.03;93.50;100569.00;4993478;28;20041;-78
2020/12/23 08:16:07;;;;;;;55.45;28.30;;;;;;;7.06;93.33;100558.28;4959550;28;20034;-78
2020/12/23 08:18:32;;;;;;;55.70;27.75;;;;;;;6.79;93.25;100545.19;4993246;28;20400;-76
2020/12/23 08:21:05;;;;;;;52.83;28.23;;;;;;;7.00;93.50;100583.25;4992747;28;20046;-76
2020/12/23 08:23:30;;;;;;;54.75;28.55;;;;;;;7.07;93.49;100574.13;4975810;28;20057;-78
2020/12/23 08:25:56;;;;;;;55.65;29.20;;;;;;;6.98;93.33;100569.19;4975769;28;20034;-77
2020/12/23 08:28:22;;;;;;;56.45;28.73;;;;;;;7.19;93.28;100578.06;4993111;28;20042;-77
2020/12/23 08:30:48;;;;;;;53.55;26.55;;;;;;;6.94;92.72;100534.88;4975342;28;20038;-75
2020/12/23 08:33:16;;;;;;;53.97;28.33;;;;;;;7.14;93.21;100569.41;4992728;28;20034;-75
2020/12/23 08:35:43;;;;;;;55.78;28.70;;;;;;;7.17;93.31;100577.25;4993932;28;20487;-75
2020/12/23 08:38:23;;;;;;;53.63;28.30;;;;;;;7.21;93.27;100576.19;4996863;28;20038;-75
2020/12/23 08:40:51;;;;;;;54.55;27.52;;;;;;;7.27;92.71;100568.00;4996154;28;20049;-76
2020/12/23 08:43:25;;;;;;;54.33;28.70;;;;;;;7.41;92.37;100567.41;4996458;28;20042;-76
2020/12/23 08:45:53;;;;;;;55.20;30.35;;;;;;;7.53;91.98;100560.72;4978781;28;20467;-75
2020/12/23 08:48:23;;;;;;;53.33;28.45;;;;;;;7.65;91.65;100565.50;4996057;28;20061;-75
2020/12/23 08:51:01;;;;;;;54.33;28.77;;;;;;;7.70;91.04;100558.19;4996097;28;20038;-77
2020/12/23 08:53:37;;;;;;;57.33;27.92;;;;;;;7.69;91.36;100551.16;4996346;28;20081;-78
2020/12/23 08:56:25;;;;;;;53.63;27.67;;;;;;;7.80;91.12;100564.84;4995765;28;20026;-76
2020/12/23 08:58:58;;;;;;;56.85;28.73;;;;;;;7.82;90.97;100568.31;4996055;28;20031;-78
2020/12/23 09:01:24;;;;;;;53.63;28.15;;;;;;;7.82;91.13;100560.34;4979831;28;20185;-75
2020/12/23 09:04:16;;;;;;;56.55;29.33;;;;;;;7.72;91.08;100572.25;4962224;28;20062;-76
2020/12/23 09:06:43;;;;;;;50.17;26.75;;;;;;;7.68;91.10;100560.06;4991257;28;20100;-78
2020/12/23 09:09:22;;;;;;;52.33;27.55;;;;;;;7.78;90.86;100552.56;4978670;28;20030;-79
2020/12/23 09:11:52;;;;;;;48.13;26.50;;;;;;;7.63;91.03;100541.69;4995917;28;20069;-77
2020/12/23 09:14:23;;;;;;;50.47;27.08;;;;;;;7.73;91.47;100550.13;4978596;28;20074;-77
2020/12/23 09:16:56;;;;;;;63.47;32.25;;;;;;;7.82;91.46;100546.19;4978152;28;20030;-78
2020/12/23 09:19:47;;;;;;;52.08;29.25;;;;;;;7.90;91.35;100542.25;4995914;28;20046;-77
2020/12/23 09:22:37;;;;;;;51.90;27.15;;;;;;;8.05;90.86;100527.44;4978344;28;20026;-76
2020/12/23 09:25:19;;;;;;;48.80;27.20;;;;;;;8.10;90.65;100535.19;4986427;28;20437;-73
2020/12/23 09:27:47;;;;;;;53.78;28.58;;;;;;;7.93;89.98;100472.22;4995554;28;20041;-73
2020/12/23 09:30:14;;;;;;;51.25;27.52;;;;;;;8.13;89.43;100481.91;4995653;28;20109;-72
2020/12/23 09:32:51;;;;;;;50.67;27.02;;;;;;;8.41;88.36;100514.28;4995716;28;20121;-75
2020/12/23 09:35:24;;;;;;;48.72;26.42;;;;;;;8.33;89.57;100511.06;4978502;28;20117;-75
2020/12/23 09:38:01;;;;;;;;;;;;;;;8.32;88.89;100501.38;4996185;28;20080;-78
2020/12/23 09:40:26;;;;;;;44.70;24.48;;;;;;;8.41;88.68;100503.66;4978218;28;19909;-78
2020/12/23 09:42:51;;;;;;;46.28;24.17;;;;;;;8.47;88.40;100498.00;4995102;28;20122;-74
2020/12/23 09:45:17;;;;;;;44.40;24.50;;;;;;;8.17;88.13;100448.94;4962327;28;20077;-80
2020/12/23 09:47:43;;;;;;;45.47;24.55;;;;;;;8.25;88.05;100441.47;4995703;28;20027;-77
2020/12/23 09:50:08;;;;;;;45.92;24.73;;;;;;;8.53;88.08;100491.56;4995039;28;20041;-75
2020/12/23 09:52:34;;;;;;;43.33;24.50;;;;;;;8.65;87.59;100490.97;4977667;28;20472;-78
2020/12/23 09:54:59;;;;;;;42.25;23.38;;;;;;;8.46;86.94;100448.44;4961446;28;20125;-75
2020/12/23 09:57:24;;;;;;;43.67;22.58;;;;;;;8.64;86.66;100493.69;4991825;28;20034;-77
2020/12/23 09:59:50;;;;;;;39.70;22.17;;;;;;;8.64;86.58;100462.66;4976441;28;20096;-72
2020/12/23 10:02:15;;;;;;;39.78;21.95;;;;;;;8.82;86.63;100467.06;4976554;28;20038;-74
2020/12/23 10:04:41;;;;;;;38.28;22.33;;;;;;;8.76;86.55;100445.22;4993726;28;20050;-73
2020/12/23 10:07:09;;;;;;;38.67;22.10;;;;;;;8.80;86.21;100447.66;4976456;28;20117;-77
2020/12/23 10:09:35;;;;;;;37.17;21.98;;;;;;;8.71;nan;100437.50;4976116;28;20125;-77
2020/12/23 10:12:00;;;;;;;37.88;21.45;;;;;;;8.73;85.41;100442.72;4976574;28;20122;-76
2020/12/23 10:14:25;;;;;;;39.13;22.50;;;;;;;8.79;86.22;100448.59;4992809;28;20085;-77
2020/12/23 10:16:51;;;;;;;40.75;20.95;;;;;;;8.93;85.83;100453.22;4993692;28;20030;-75
2020/12/23 10:19:16;;;;;;;38.42;21.35;;;;;;;8.64;85.73;100397.97;4959450;28;20069;-75
2020/12/23 10:21:41;;;;;;;39.15;21.42;;;;;;;9.04;85.46;100461.53;4976707;28;20066;-74
2020/12/23 10:24:07;;;;;;;36.65;21.38;;;;;;;9.14;85.27;100457.47;4993045;28;20396;-75
2020/12/23 10:26:32;;;;;;;37.47;20.98;;;;;;;9.33;83.98;100461.84;4976629;28;20165;-71
2020/12/23 10:28:58;;;;;;;37.72;21.45;;;;;;;9.17;83.55;100428.06;4975644;28;20121;-73
2020/12/23 10:31:24;;;;;;;37.33;20.77;;;;;;;9.37;83.97;100431.47;4993879;28;20049;-74
2020/12/23 10:33:49;;;;;;;38.10;21.30;;;;;;;9.52;82.36;100443.09;4993274;28;20069;-73
2020/12/23 10:36:16;;;;;;;36.65;21.08;;;;;;;9.42;82.88;100437.41;4959790;28;20049;-75
2020/12/23 10:38:42;;;;;;;42.45;21.85;;;;;;;9.44;83.43;100440.84;4993542;28;20049;-73
2020/12/23 10:41:08;;;;;;;35.90;20.00;;;;;;;9.43;82.91;100420.47;4975685;28;20392;-76
2020/12/23 10:43:33;;;;;;;35.28;20.23;;;;;;;9.26;82.90;100377.91;4976318;28;20034;-76
2020/12/23 10:45:59;;;;;;;37.88;21.90;;;;;;;9.26;83.13;100376.09;4993653;28;20798;-73
2020/12/23 10:48:24;;;;;;;38.72;22.02;;;;;;;9.44;82.65;100416.88;4959299;28;20038;-74
2020/12/23 10:50:50;;;;;;;44.63;24.42;;;;;;;9.50;83.07;100416.56;4993067;28;20042;-76
2020/12/23 10:53:15;;;;;;;41.47;21.00;;;;;;;9.53;82.90;100396.91;4975540;28;20042;-74
2020/12/23 10:55:41;;;;;;;41.08;22.00;;;;;;;9.44;83.14;100368.94;4993236;28;20458;-76
2020/12/23 10:58:07;;;;;;;41.00;21.13;;;;;;;9.56;82.70;100375.44;4992000;28;20045;-76
2020/12/23 11:00:34;;;;;;;37.55;20.63;;;;;;;9.64;81.86;100387.38;4977067;28;20042;-75
2020/12/23 11:03:00;;;;;;;32.97;19.60;;;;;;;9.60;81.52;100400.97;5005040;28;20113;-76
2020/12/23 11:05:26;;;;;;;36.42;20.40;;;;;;;9.56;82.17;100402.94;4990883;28;20050;-75
2020/12/23 11:07:53;;;;;;;39.33;20.35;;;;;;;9.51;82.31;100382.81;4999973;28;20045;-74
2020/12/23 11:10:20;;;;;;;36.75;19.77;;;;;;;9.79;81.76;100392.84;4976152;28;20756;-74
2020/12/23 11:12:49;;;;;;;35.60;19.90;;;;;;;9.67;81.07;100327.78;4975312;28;20026;-73
2020/12/23 11:15:16;;;;;;;37.17;20.48;;;;;;;9.87;81.16;100356.84;4993147;28;20042;-72
2020/12/23 11:17:45;;;;;;;36.17;20.17;;;;;;;9.97;80.69;100354.53;4960048;28;20049;-76
2020/12/23 11:20:11;;;;;;;36.65;19.65;;;;;;;9.99;80.71;100372.13;4993048;28;20039;-75